sensor_id;sensor_type;location;lat;lon;timestamp;P1;durP1;ratioP1;P2;durP2;ratioP2
19605;SDS011;9950;50.168;8.210;2022-11-23T00:01:27;22.55;;;10.23;;
19605;SDS011;9950;50.168;8.210;2022-11-23T00:03:55;22.15;;;9.48;;
19605;SDS011;9950;50.168;8.210;2022-11-23T00:06:23;21.00;;;9.10;;
19605;SDS011;9950;50.168;8.210;2022-11-23T00:08:52;17.30;;;9.13;;
19605;SDS011;9950;50.168;8.210;2022-11-23T00:11:19;22.38;;;9.57;;
19605;SDS011;9950;50.168;8.210;2022-11-23T00:13:47;26.70;;;10.15;;
19605;SDS011;9950;50.168;8.210;2022-11-23T00:16:14;16.25;;;7.80;;
19605;SDS011;9950;50.168;8.210;2022-11-23T00:18:44;20.73;;;9.57;;
19605;SDS011;9950;50.168;8.210;2022-11-23T00:21:12;15.38;;;9.30;;
19605;SDS011;9950;50.168;8.210;2022-11-23T00:23:40;20.13;;;9.27;;
19605;SDS011;9950;50.168;8.210;2022-11-23T00:26:07;16.98;;;8.90;;
19605;SDS011;9950;50.168;8.210;2022-11-23T00:28:34;17.60;;;8.20;;
19605;SDS011;9950;50.168;8.210;2022-11-23T00:31:04;18.35;;;8.77;;
19605;SDS011;9950;50.168;8.210;2022-11-23T00:33:31;19.55;;;8.52;;
19605;SDS011;9950;50.168;8.210;2022-11-23T00:36:00;16.20;;;8.25;;
19605;SDS011;9950;50.168;8.210;2022-11-23T00:38:28;16.90;;;8.55;;
19605;SDS011;9950;50.168;8.210;2022-11-23T00:40:58;16.60;;;9.15;;
19605;SDS011;9950;50.168;8.210;2022-11-23T00:43:25;14.90;;;8.10;;
19605;SDS011;9950;50.168;8.210;2022-11-23T00:46:06;21.23;;;8.55;;
19605;SDS011;9950;50.168;8.210;2022-11-23T00:48:33;19.95;;;8.50;;
19605;SDS011;9950;50.168;8.210;2022-11-23T00:51:02;16.95;;;8.25;;
19605;SDS011;9950;50.168;8.210;2022-11-23T00:53:30;18.75;;;7.72;;
19605;SDS011;9950;50.168;8.210;2022-11-23T00:55:57;19.35;;;8.35;;
19605;SDS011;9950;50.168;8.210;2022-11-23T00:58:24;17.42;;;7.60;;
19605;SDS011;9950;50.168;8.210;2022-11-23T01:00:59;21.25;;;7.50;;
19605;SDS011;9950;50.168;8.210;2022-11-23T01:03:27;12.70;;;7.38;;
19605;SDS011;9950;50.168;8.210;2022-11-23T01:05:54;14.15;;;7.30;;
19605;SDS011;9950;50.168;8.210;2022-11-23T01:08:22;16.23;;;7.70;;
19605;SDS011;9950;50.168;8.210;2022-11-23T01:10:49;16.10;;;6.55;;
19605;SDS011;9950;50.168;8.210;2022-11-23T01:13:17;15.50;;;6.55;;
19605;SDS011;9950;50.168;8.210;2022-11-23T01:15:47;15.88;;;6.82;;
19605;SDS011;9950;50.168;8.210;2022-11-23T01:18:15;15.73;;;7.25;;
19605;SDS011;9950;50.168;8.210;2022-11-23T01:20:42;14.82;;;6.60;;
19605;SDS011;9950;50.168;8.210;2022-11-23T01:23:09;15.20;;;6.88;;
19605;SDS011;9950;50.168;8.210;2022-11-23T01:25:38;13.95;;;6.78;;
19605;SDS011;9950;50.168;8.210;2022-11-23T01:28:05;15.00;;;7.13;;
19605;SDS011;9950;50.168;8.210;2022-11-23T01:30:32;15.43;;;6.78;;
19605;SDS011;9950;50.168;8.210;2022-11-23T01:33:00;12.68;;;6.97;;
19605;SDS011;9950;50.168;8.210;2022-11-23T01:35:27;15.63;;;7.97;;
19605;SDS011;9950;50.168;8.210;2022-11-23T01:37:55;13.98;;;7.57;;
19605;SDS011;9950;50.168;8.210;2022-11-23T01:40:22;13.45;;;6.88;;
19605;SDS011;9950;50.168;8.210;2022-11-23T01:42:53;15.20;;;7.35;;
19605;SDS011;9950;50.168;8.210;2022-11-23T01:45:35;17.73;;;7.93;;
19605;SDS011;9950;50.168;8.210;2022-11-23T01:48:04;21.10;;;7.57;;
19605;SDS011;9950;50.168;8.210;2022-11-23T01:50:32;16.73;;;7.40;;
19605;SDS011;9950;50.168;8.210;2022-11-23T01:52:59;15.80;;;7.72;;
19605;SDS011;9950;50.168;8.210;2022-11-23T01:55:26;18.58;;;8.10;;
19605;SDS011;9950;50.168;8.210;2022-11-23T01:57:55;20.70;;;9.00;;
19605;SDS011;9950;50.168;8.210;2022-11-23T02:00:22;19.30;;;8.10;;
19605;SDS011;9950;50.168;8.210;2022-11-23T02:02:50;18.27;;;7.57;;
19605;SDS011;9950;50.168;8.210;2022-11-23T02:05:18;17.38;;;9.00;;
19605;SDS011;9950;50.168;8.210;2022-11-23T02:07:47;19.70;;;7.88;;
19605;SDS011;9950;50.168;8.210;2022-11-23T02:10:15;14.13;;;8.18;;
19605;SDS011;9950;50.168;8.210;2022-11-23T02:12:43;15.27;;;7.13;;
19605;SDS011;9950;50.168;8.210;2022-11-23T02:15:11;17.65;;;8.07;;
19605;SDS011;9950;50.168;8.210;2022-11-23T02:17:38;15.27;;;7.45;;
19605;SDS011;9950;50.168;8.210;2022-11-23T02:20:06;16.13;;;7.90;;
19605;SDS011;9950;50.168;8.210;2022-11-23T02:22:39;21.42;;;9.20;;
19605;SDS011;9950;50.168;8.210;2022-11-23T02:25:09;14.18;;;7.35;;
19605;SDS011;9950;50.168;8.210;2022-11-23T02:27:40;16.60;;;8.02;;
19605;SDS011;9950;50.168;8.210;2022-11-23T02:30:08;22.80;;;8.77;;
19605;SDS011;9950;50.168;8.210;2022-11-23T02:32:36;20.23;;;8.23;;
19605;SDS011;9950;50.168;8.210;2022-11-23T02:35:04;16.23;;;7.95;;
19605;SDS011;9950;50.168;8.210;2022-11-23T02:37:31;20.55;;;7.93;;
19605;SDS011;9950;50.168;8.210;2022-11-23T02:39:58;19.67;;;8.63;;
19605;SDS011;9950;50.168;8.210;2022-11-23T02:42:26;19.27;;;8.90;;
19605;SDS011;9950;50.168;8.210;2022-11-23T02:44:57;20.02;;;9.18;;
19605;SDS011;9950;50.168;8.210;2022-11-23T02:47:26;16.15;;;8.43;;
19605;SDS011;9950;50.168;8.210;2022-11-23T02:49:53;16.33;;;8.30;;
19605;SDS011;9950;50.168;8.210;2022-11-23T02:52:20;14.88;;;7.80;;
19605;SDS011;9950;50.168;8.210;2022-11-23T02:54:47;19.70;;;8.30;;
19605;SDS011;9950;50.168;8.210;2022-11-23T02:57:15;17.70;;;8.68;;
19605;SDS011;9950;50.168;8.210;2022-11-23T02:59:42;21.17;;;9.18;;
19605;SDS011;9950;50.168;8.210;2022-11-23T03:02:10;17.30;;;8.00;;
19605;SDS011;9950;50.168;8.210;2022-11-23T03:04:38;18.15;;;8.15;;
19605;SDS011;9950;50.168;8.210;2022-11-23T03:07:05;12.93;;;7.75;;
19605;SDS011;9950;50.168;8.210;2022-11-23T03:09:32;19.42;;;7.85;;
19605;SDS011;9950;50.168;8.210;2022-11-23T03:11:59;18.05;;;7.75;;
19605;SDS011;9950;50.168;8.210;2022-11-23T03:14:26;19.85;;;8.65;;
19605;SDS011;9950;50.168;8.210;2022-11-23T03:16:53;13.05;;;7.63;;
19605;SDS011;9950;50.168;8.210;2022-11-23T03:19:22;14.98;;;8.55;;
19605;SDS011;9950;50.168;8.210;2022-11-23T03:21:49;18.88;;;8.68;;
19605;SDS011;9950;50.168;8.210;2022-11-23T03:24:16;17.75;;;9.00;;
19605;SDS011;9950;50.168;8.210;2022-11-23T03:26:43;17.77;;;8.23;;
19605;SDS011;9950;50.168;8.210;2022-11-23T03:29:10;23.73;;;9.40;;
19605;SDS011;9950;50.168;8.210;2022-11-23T03:31:37;16.42;;;8.10;;
19605;SDS011;9950;50.168;8.210;2022-11-23T03:34:05;14.98;;;8.77;;
19605;SDS011;9950;50.168;8.210;2022-11-23T03:36:33;18.90;;;9.02;;
19605;SDS011;9950;50.168;8.210;2022-11-23T03:39:00;15.98;;;9.80;;
19605;SDS011;9950;50.168;8.210;2022-11-23T03:41:27;17.23;;;9.30;;
19605;SDS011;9950;50.168;8.210;2022-11-23T03:43:54;17.63;;;9.25;;
19605;SDS011;9950;50.168;8.210;2022-11-23T03:46:22;18.33;;;9.43;;
19605;SDS011;9950;50.168;8.210;2022-11-23T03:48:49;21.30;;;9.48;;
19605;SDS011;9950;50.168;8.210;2022-11-23T03:51:16;21.70;;;9.52;;
19605;SDS011;9950;50.168;8.210;2022-11-23T03:53:44;18.20;;;9.40;;
19605;SDS011;9950;50.168;8.210;2022-11-23T03:56:11;16.05;;;8.88;;
19605;SDS011;9950;50.168;8.210;2022-11-23T03:58:39;17.90;;;8.73;;
19605;SDS011;9950;50.168;8.210;2022-11-23T04:01:06;16.77;;;8.75;;
19605;SDS011;9950;50.168;8.210;2022-11-23T04:03:33;22.15;;;8.60;;
19605;SDS011;9950;50.168;8.210;2022-11-23T04:06:00;24.40;;;9.50;;
19605;SDS011;9950;50.168;8.210;2022-11-23T04:08:27;20.75;;;9.32;;
19605;SDS011;9950;50.168;8.210;2022-11-23T04:10:56;19.67;;;9.27;;
19605;SDS011;9950;50.168;8.210;2022-11-23T04:13:23;21.20;;;9.45;;
19605;SDS011;9950;50.168;8.210;2022-11-23T04:15:50;19.00;;;10.25;;
19605;SDS011;9950;50.168;8.210;2022-11-23T04:18:18;23.50;;;9.07;;
19605;SDS011;9950;50.168;8.210;2022-11-23T04:20:45;18.60;;;8.80;;
19605;SDS011;9950;50.168;8.210;2022-11-23T04:23:12;17.10;;;9.90;;
19605;SDS011;9950;50.168;8.210;2022-11-23T04:25:39;20.10;;;8.88;;
19605;SDS011;9950;50.168;8.210;2022-11-23T04:28:08;18.60;;;8.00;;
19605;SDS011;9950;50.168;8.210;2022-11-23T04:30:35;17.90;;;8.02;;
19605;SDS011;9950;50.168;8.210;2022-11-23T04:33:02;17.73;;;8.15;;
19605;SDS011;9950;50.168;8.210;2022-11-23T04:35:29;22.27;;;7.90;;
19605;SDS011;9950;50.168;8.210;2022-11-23T04:37:58;19.83;;;8.48;;
19605;SDS011;9950;50.168;8.210;2022-11-23T04:40:25;19.45;;;8.70;;
19605;SDS011;9950;50.168;8.210;2022-11-23T04:42:53;18.15;;;7.63;;
19605;SDS011;9950;50.168;8.210;2022-11-23T04:45:21;24.55;;;9.25;;
19605;SDS011;9950;50.168;8.210;2022-11-23T04:47:48;20.63;;;9.10;;
19605;SDS011;9950;50.168;8.210;2022-11-23T04:50:15;20.10;;;8.70;;
19605;SDS011;9950;50.168;8.210;2022-11-23T04:52:42;22.92;;;8.90;;
19605;SDS011;9950;50.168;8.210;2022-11-23T04:55:10;19.42;;;8.63;;
19605;SDS011;9950;50.168;8.210;2022-11-23T04:57:37;21.70;;;8.50;;
19605;SDS011;9950;50.168;8.210;2022-11-23T05:00:04;18.35;;;8.73;;
19605;SDS011;9950;50.168;8.210;2022-11-23T05:02:33;16.80;;;8.90;;
19605;SDS011;9950;50.168;8.210;2022-11-23T05:05:00;17.25;;;8.40;;
19605;SDS011;9950;50.168;8.210;2022-11-23T05:07:27;15.77;;;7.97;;
19605;SDS011;9950;50.168;8.210;2022-11-23T05:09:54;20.17;;;8.13;;
19605;SDS011;9950;50.168;8.210;2022-11-23T05:12:22;15.77;;;8.95;;
19605;SDS011;9950;50.168;8.210;2022-11-23T05:14:49;22.23;;;8.77;;
19605;SDS011;9950;50.168;8.210;2022-11-23T05:17:16;17.95;;;8.23;;
19605;SDS011;9950;50.168;8.210;2022-11-23T05:19:44;19.98;;;8.80;;
19605;SDS011;9950;50.168;8.210;2022-11-23T05:22:12;22.45;;;9.90;;
19605;SDS011;9950;50.168;8.210;2022-11-23T05:24:39;23.15;;;9.82;;
19605;SDS011;9950;50.168;8.210;2022-11-23T05:27:06;13.70;;;8.05;;
19605;SDS011;9950;50.168;8.210;2022-11-23T05:29:33;18.85;;;8.43;;
19605;SDS011;9950;50.168;8.210;2022-11-23T05:32:00;16.20;;;9.02;;
19605;SDS011;9950;50.168;8.210;2022-11-23T05:34:27;18.52;;;9.15;;
19605;SDS011;9950;50.168;8.210;2022-11-23T05:36:56;23.67;;;9.15;;
19605;SDS011;9950;50.168;8.210;2022-11-23T05:39:23;19.23;;;9.13;;
19605;SDS011;9950;50.168;8.210;2022-11-23T05:41:50;20.27;;;8.75;;
19605;SDS011;9950;50.168;8.210;2022-11-23T05:44:17;24.73;;;9.55;;
19605;SDS011;9950;50.168;8.210;2022-11-23T05:46:46;23.17;;;9.88;;
19605;SDS011;9950;50.168;8.210;2022-11-23T05:49:13;23.73;;;9.52;;
19605;SDS011;9950;50.168;8.210;2022-11-23T05:51:40;21.30;;;9.60;;
19605;SDS011;9950;50.168;8.210;2022-11-23T05:54:08;20.73;;;9.40;;
19605;SDS011;9950;50.168;8.210;2022-11-23T05:56:36;24.25;;;8.73;;
19605;SDS011;9950;50.168;8.210;2022-11-23T05:59:03;19.88;;;8.15;;
19605;SDS011;9950;50.168;8.210;2022-11-23T06:01:30;18.00;;;9.00;;
19605;SDS011;9950;50.168;8.210;2022-11-23T06:03:58;18.45;;;9.35;;
19605;SDS011;9950;50.168;8.210;2022-11-23T06:06:25;21.20;;;9.13;;
19605;SDS011;9950;50.168;8.210;2022-11-23T06:08:52;21.02;;;9.57;;
19605;SDS011;9950;50.168;8.210;2022-11-23T06:11:20;20.95;;;8.60;;
19605;SDS011;9950;50.168;8.210;2022-11-23T06:13:48;23.80;;;8.93;;
19605;SDS011;9950;50.168;8.210;2022-11-23T06:16:15;20.17;;;9.60;;
19605;SDS011;9950;50.168;8.210;2022-11-23T06:18:42;24.05;;;8.88;;
19605;SDS011;9950;50.168;8.210;2022-11-23T06:21:09;22.50;;;10.68;;
19605;SDS011;9950;50.168;8.210;2022-11-23T06:23:36;25.60;;;11.85;;
19605;SDS011;9950;50.168;8.210;2022-11-23T06:26:03;22.33;;;10.20;;
19605;SDS011;9950;50.168;8.210;2022-11-23T06:28:32;23.48;;;10.13;;
19605;SDS011;9950;50.168;8.210;2022-11-23T06:31:01;19.35;;;9.55;;
19605;SDS011;9950;50.168;8.210;2022-11-23T06:33:29;23.52;;;9.23;;
19605;SDS011;9950;50.168;8.210;2022-11-23T06:35:57;23.08;;;9.60;;
19605;SDS011;9950;50.168;8.210;2022-11-23T06:38:24;23.65;;;10.27;;
19605;SDS011;9950;50.168;8.210;2022-11-23T06:40:51;23.52;;;10.70;;
19605;SDS011;9950;50.168;8.210;2022-11-23T06:43:19;30.63;;;10.45;;
19605;SDS011;9950;50.168;8.210;2022-11-23T06:45:47;22.58;;;9.40;;
19605;SDS011;9950;50.168;8.210;2022-11-23T06:48:14;22.08;;;10.38;;
19605;SDS011;9950;50.168;8.210;2022-11-23T06:50:41;27.73;;;10.63;;
19605;SDS011;9950;50.168;8.210;2022-11-23T06:53:08;19.73;;;9.60;;
19605;SDS011;9950;50.168;8.210;2022-11-23T06:55:36;18.83;;;9.57;;
19605;SDS011;9950;50.168;8.210;2022-11-23T06:58:03;23.67;;;9.15;;
19605;SDS011;9950;50.168;8.210;2022-11-23T07:00:30;20.80;;;9.60;;
19605;SDS011;9950;50.168;8.210;2022-11-23T07:02:59;21.77;;;9.40;;
19605;SDS011;9950;50.168;8.210;2022-11-23T07:05:26;24.75;;;10.30;;
19605;SDS011;9950;50.168;8.210;2022-11-23T07:07:54;25.20;;;10.85;;
19605;SDS011;9950;50.168;8.210;2022-11-23T07:10:21;19.77;;;10.18;;
19605;SDS011;9950;50.168;8.210;2022-11-23T07:13:01;26.00;;;10.18;;
19605;SDS011;9950;50.168;8.210;2022-11-23T07:15:28;20.33;;;11.10;;
19605;SDS011;9950;50.168;8.210;2022-11-23T07:17:56;24.33;;;12.25;;
19605;SDS011;9950;50.168;8.210;2022-11-23T07:20:24;21.08;;;12.13;;
19605;SDS011;9950;50.168;8.210;2022-11-23T07:22:57;33.28;;;13.77;;
19605;SDS011;9950;50.168;8.210;2022-11-23T07:25:25;33.78;;;13.95;;
19605;SDS011;9950;50.168;8.210;2022-11-23T07:27:53;30.38;;;12.00;;
19605;SDS011;9950;50.168;8.210;2022-11-23T07:30:21;33.58;;;12.90;;
19605;SDS011;9950;50.168;8.210;2022-11-23T07:32:49;27.27;;;12.40;;
19605;SDS011;9950;50.168;8.210;2022-11-23T07:35:16;32.20;;;11.80;;
19605;SDS011;9950;50.168;8.210;2022-11-23T07:37:45;22.20;;;11.30;;
19605;SDS011;9950;50.168;8.210;2022-11-23T07:40:12;24.65;;;12.93;;
19605;SDS011;9950;50.168;8.210;2022-11-23T07:42:39;28.83;;;12.95;;
19605;SDS011;9950;50.168;8.210;2022-11-23T07:45:07;28.40;;;12.65;;
19605;SDS011;9950;50.168;8.210;2022-11-23T07:47:34;24.48;;;13.05;;
19605;SDS011;9950;50.168;8.210;2022-11-23T07:50:02;28.75;;;12.05;;
19605;SDS011;9950;50.168;8.210;2022-11-23T07:52:29;33.63;;;13.10;;
19605;SDS011;9950;50.168;8.210;2022-11-23T07:54:57;26.90;;;11.77;;
19605;SDS011;9950;50.168;8.210;2022-11-23T07:57:25;24.83;;;11.55;;
19605;SDS011;9950;50.168;8.210;2022-11-23T07:59:52;23.90;;;11.75;;
19605;SDS011;9950;50.168;8.210;2022-11-23T08:02:20;21.63;;;11.35;;
19605;SDS011;9950;50.168;8.210;2022-11-23T08:04:47;25.85;;;11.35;;
19605;SDS011;9950;50.168;8.210;2022-11-23T08:07:14;21.25;;;9.85;;
19605;SDS011;9950;50.168;8.210;2022-11-23T08:09:41;18.48;;;9.65;;
19605;SDS011;9950;50.168;8.210;2022-11-23T08:12:10;18.00;;;9.80;;
19605;SDS011;9950;50.168;8.210;2022-11-23T08:14:37;21.92;;;9.70;;
19605;SDS011;9950;50.168;8.210;2022-11-23T08:17:04;19.33;;;8.32;;
19605;SDS011;9950;50.168;8.210;2022-11-23T08:19:31;19.67;;;8.05;;
19605;SDS011;9950;50.168;8.210;2022-11-23T08:21:59;22.80;;;7.60;;
19605;SDS011;9950;50.168;8.210;2022-11-23T08:24:26;16.15;;;6.65;;
19605;SDS011;9950;50.168;8.210;2022-11-23T08:26:53;19.23;;;7.63;;
19605;SDS011;9950;50.168;8.210;2022-11-23T08:29:21;14.60;;;7.47;;
19605;SDS011;9950;50.168;8.210;2022-11-23T08:31:49;21.75;;;8.70;;
19605;SDS011;9950;50.168;8.210;2022-11-23T08:34:16;18.48;;;8.02;;
19605;SDS011;9950;50.168;8.210;2022-11-23T08:36:44;15.80;;;8.25;;
19605;SDS011;9950;50.168;8.210;2022-11-23T08:39:12;15.27;;;8.23;;
19605;SDS011;9950;50.168;8.210;2022-11-23T08:41:41;18.05;;;7.57;;
19605;SDS011;9950;50.168;8.210;2022-11-23T08:44:08;21.42;;;8.40;;
19605;SDS011;9950;50.168;8.210;2022-11-23T08:46:37;17.23;;;7.35;;
19605;SDS011;9950;50.168;8.210;2022-11-23T08:49:05;18.02;;;8.95;;
19605;SDS011;9950;50.168;8.210;2022-11-23T08:51:32;13.73;;;6.88;;
19605;SDS011;9950;50.168;8.210;2022-11-23T08:54:00;16.23;;;7.20;;
19605;SDS011;9950;50.168;8.210;2022-11-23T08:56:27;17.40;;;7.63;;
19605;SDS011;9950;50.168;8.210;2022-11-23T08:58:54;18.63;;;7.15;;
19605;SDS011;9950;50.168;8.210;2022-11-23T09:01:21;14.40;;;7.28;;
19605;SDS011;9950;50.168;8.210;2022-11-23T09:03:50;17.65;;;7.78;;
19605;SDS011;9950;50.168;8.210;2022-11-23T09:06:18;19.60;;;7.53;;
19605;SDS011;9950;50.168;8.210;2022-11-23T09:08:51;20.15;;;7.53;;
19605;SDS011;9950;50.168;8.210;2022-11-23T09:11:18;14.70;;;7.10;;
19605;SDS011;9950;50.168;8.210;2022-11-23T09:13:46;16.52;;;7.07;;
19605;SDS011;9950;50.168;8.210;2022-11-23T09:16:13;18.85;;;7.63;;
19605;SDS011;9950;50.168;8.210;2022-11-23T09:18:40;15.55;;;7.22;;
19605;SDS011;9950;50.168;8.210;2022-11-23T09:21:09;17.05;;;5.78;;
19605;SDS011;9950;50.168;8.210;2022-11-23T09:23:36;11.98;;;5.47;;
19605;SDS011;9950;50.168;8.210;2022-11-23T09:26:04;17.50;;;6.20;;
19605;SDS011;9950;50.168;8.210;2022-11-23T09:28:31;19.50;;;6.95;;
19605;SDS011;9950;50.168;8.210;2022-11-23T09:31:01;19.25;;;6.82;;
19605;SDS011;9950;50.168;8.210;2022-11-23T09:33:30;14.60;;;5.82;;
19605;SDS011;9950;50.168;8.210;2022-11-23T09:35:57;10.32;;;5.13;;
19605;SDS011;9950;50.168;8.210;2022-11-23T09:38:26;15.80;;;6.95;;
19605;SDS011;9950;50.168;8.210;2022-11-23T09:40:56;15.02;;;5.15;;
19605;SDS011;9950;50.168;8.210;2022-11-23T09:43:34;17.85;;;4.93;;
19605;SDS011;9950;50.168;8.210;2022-11-23T09:46:03;16.67;;;4.07;;
19605;SDS011;9950;50.168;8.210;2022-11-23T09:48:40;11.85;;;3.63;;
19605;SDS011;9950;50.168;8.210;2022-11-23T09:51:12;10.55;;;3.33;;
19605;SDS011;9950;50.168;8.210;2022-11-23T09:53:43;9.35;;;3.30;;
19605;SDS011;9950;50.168;8.210;2022-11-23T09:56:14;12.65;;;3.38;;
19605;SDS011;9950;50.168;8.210;2022-11-23T09:58:42;16.90;;;3.40;;
19605;SDS011;9950;50.168;8.210;2022-11-23T10:01:10;9.07;;;3.13;;
19605;SDS011;9950;50.168;8.210;2022-11-23T10:03:39;7.53;;;3.13;;
19605;SDS011;9950;50.168;8.210;2022-11-23T10:06:16;9.63;;;3.00;;
19605;SDS011;9950;50.168;8.210;2022-11-23T10:08:47;10.40;;;3.05;;
19605;SDS011;9950;50.168;8.210;2022-11-23T10:11:22;9.02;;;2.80;;
19605;SDS011;9950;50.168;8.210;2022-11-23T10:13:55;11.18;;;3.08;;
19605;SDS011;9950;50.168;8.210;2022-11-23T10:16:31;11.88;;;3.20;;
19605;SDS011;9950;50.168;8.210;2022-11-23T10:19:04;13.38;;;2.83;;
19605;SDS011;9950;50.168;8.210;2022-11-23T10:21:38;7.68;;;2.72;;
19605;SDS011;9950;50.168;8.210;2022-11-23T10:24:14;8.63;;;2.85;;
19605;SDS011;9950;50.168;8.210;2022-11-23T10:26:45;8.00;;;2.22;;
19605;SDS011;9950;50.168;8.210;2022-11-23T10:29:13;10.60;;;2.45;;
19605;SDS011;9950;50.168;8.210;2022-11-23T10:31:42;13.00;;;2.60;;
19605;SDS011;9950;50.168;8.210;2022-11-23T10:34:11;4.95;;;2.38;;
19605;SDS011;9950;50.168;8.210;2022-11-23T10:36:39;6.18;;;2.47;;
19605;SDS011;9950;50.168;8.210;2022-11-23T10:39:11;9.40;;;2.60;;
19605;SDS011;9950;50.168;8.210;2022-11-23T10:41:41;11.45;;;2.28;;
19605;SDS011;9950;50.168;8.210;2022-11-23T10:44:11;8.65;;;2.20;;
19605;SDS011;9950;50.168;8.210;2022-11-23T10:46:40;6.80;;;2.00;;
19605;SDS011;9950;50.168;8.210;2022-11-23T10:49:17;10.27;;;2.60;;
19605;SDS011;9950;50.168;8.210;2022-11-23T10:51:47;8.63;;;1.88;;
19605;SDS011;9950;50.168;8.210;2022-11-23T10:54:16;9.57;;;2.28;;
19605;SDS011;9950;50.168;8.210;2022-11-23T10:56:47;10.77;;;2.97;;
19605;SDS011;9950;50.168;8.210;2022-11-23T10:59:25;5.35;;;1.77;;
19605;SDS011;9950;50.168;8.210;2022-11-23T11:01:58;8.88;;;1.80;;
19605;SDS011;9950;50.168;8.210;2022-11-23T11:04:25;4.72;;;1.58;;
19605;SDS011;9950;50.168;8.210;2022-11-23T11:06:54;6.72;;;1.90;;
19605;SDS011;9950;50.168;8.210;2022-11-23T11:09:35;5.60;;;1.92;;
19605;SDS011;9950;50.168;8.210;2022-11-23T11:12:04;10.32;;;2.20;;
19605;SDS011;9950;50.168;8.210;2022-11-23T11:14:31;6.70;;;1.80;;
19605;SDS011;9950;50.168;8.210;2022-11-23T11:16:58;7.50;;;2.08;;
19605;SDS011;9950;50.168;8.210;2022-11-23T11:19:26;6.82;;;2.10;;
19605;SDS011;9950;50.168;8.210;2022-11-23T11:21:54;6.03;;;1.98;;
19605;SDS011;9950;50.168;8.210;2022-11-23T11:24:22;6.63;;;2.40;;
19605;SDS011;9950;50.168;8.210;2022-11-23T11:26:51;7.60;;;1.98;;
19605;SDS011;9950;50.168;8.210;2022-11-23T11:29:27;9.77;;;2.75;;
19605;SDS011;9950;50.168;8.210;2022-11-23T11:31:56;8.68;;;2.80;;
19605;SDS011;9950;50.168;8.210;2022-11-23T11:34:27;6.93;;;2.20;;
19605;SDS011;9950;50.168;8.210;2022-11-23T11:36:57;10.52;;;3.10;;
19605;SDS011;9950;50.168;8.210;2022-11-23T11:39:31;7.07;;;2.88;;
19605;SDS011;9950;50.168;8.210;2022-11-23T11:42:01;10.23;;;2.97;;
19605;SDS011;9950;50.168;8.210;2022-11-23T11:44:33;6.65;;;2.70;;
19605;SDS011;9950;50.168;8.210;2022-11-23T11:47:03;8.98;;;2.90;;
19605;SDS011;9950;50.168;8.210;2022-11-23T11:49:36;16.80;;;3.15;;
19605;SDS011;9950;50.168;8.210;2022-11-23T11:52:07;9.15;;;2.47;;
19605;SDS011;9950;50.168;8.210;2022-11-23T11:54:38;7.68;;;2.28;;
19605;SDS011;9950;50.168;8.210;2022-11-23T11:57:09;7.68;;;2.10;;
19605;SDS011;9950;50.168;8.210;2022-11-23T11:59:44;11.48;;;3.15;;
19605;SDS011;9950;50.168;8.210;2022-11-23T12:02:17;11.43;;;3.00;;
19605;SDS011;9950;50.168;8.210;2022-11-23T12:04:47;7.90;;;2.00;;
19605;SDS011;9950;50.168;8.210;2022-11-23T12:07:17;9.90;;;2.42;;
19605;SDS011;9950;50.168;8.210;2022-11-23T12:09:48;8.07;;;2.42;;
19605;SDS011;9950;50.168;8.210;2022-11-23T12:12:17;7.38;;;1.35;;
19605;SDS011;9950;50.168;8.210;2022-11-23T12:14:47;13.05;;;1.75;;
19605;SDS011;9950;50.168;8.210;2022-11-23T12:17:23;3.67;;;1.50;;
19605;SDS011;9950;50.168;8.210;2022-11-23T12:20:01;6.13;;;1.40;;
19605;SDS011;9950;50.168;8.210;2022-11-23T12:22:35;6.38;;;1.60;;
19605;SDS011;9950;50.168;8.210;2022-11-23T12:25:11;9.13;;;2.05;;
19605;SDS011;9950;50.168;8.210;2022-11-23T12:27:44;4.38;;;1.60;;
19605;SDS011;9950;50.168;8.210;2022-11-23T12:30:23;8.70;;;2.03;;
19605;SDS011;9950;50.168;8.210;2022-11-23T12:35:50;6.47;;;2.10;;
19605;SDS011;9950;50.168;8.210;2022-11-23T12:38:25;6.50;;;2.05;;
19605;SDS011;9950;50.168;8.210;2022-11-23T12:41:07;5.47;;;2.00;;
19605;SDS011;9950;50.168;8.210;2022-11-23T12:43:45;10.32;;;2.53;;
19605;SDS011;9950;50.168;8.210;2022-11-23T12:46:17;9.00;;;2.13;;
19605;SDS011;9950;50.168;8.210;2022-11-23T12:48:51;5.43;;;2.20;;
19605;SDS011;9950;50.168;8.210;2022-11-23T12:51:22;7.72;;;1.73;;
19605;SDS011;9950;50.168;8.210;2022-11-23T12:53:59;7.03;;;1.60;;
19605;SDS011;9950;50.168;8.210;2022-11-23T12:56:35;8.15;;;2.45;;
19605;SDS011;9950;50.168;8.210;2022-11-23T12:59:09;9.80;;;2.00;;
19605;SDS011;9950;50.168;8.210;2022-11-23T13:01:38;7.00;;;1.58;;
19605;SDS011;9950;50.168;8.210;2022-11-23T13:04:24;7.70;;;1.50;;
19605;SDS011;9950;50.168;8.210;2022-11-23T13:10:10;6.32;;;1.80;;
19605;SDS011;9950;50.168;8.210;2022-11-23T13:15:40;10.10;;;2.30;;
19605;SDS011;9950;50.168;8.210;2022-11-23T13:18:14;6.70;;;1.80;;
19605;SDS011;9950;50.168;8.210;2022-11-23T13:20:54;8.07;;;1.73;;
19605;SDS011;9950;50.168;8.210;2022-11-23T13:23:24;8.80;;;2.28;;
19605;SDS011;9950;50.168;8.210;2022-11-23T13:28:35;6.55;;;1.48;;
19605;SDS011;9950;50.168;8.210;2022-11-23T13:33:57;8.18;;;1.88;;
19605;SDS011;9950;50.168;8.210;2022-11-23T13:36:40;5.07;;;1.52;;
19605;SDS011;9950;50.168;8.210;2022-11-23T13:41:58;11.07;;;2.38;;
19605;SDS011;9950;50.168;8.210;2022-11-23T13:44:28;3.50;;;1.67;;
19605;SDS011;9950;50.168;8.210;2022-11-23T13:46:58;4.95;;;1.92;;
19605;SDS011;9950;50.168;8.210;2022-11-23T13:49:40;10.00;;;2.03;;
19605;SDS011;9950;50.168;8.210;2022-11-23T13:55:00;5.82;;;2.03;;
19605;SDS011;9950;50.168;8.210;2022-11-23T13:57:29;6.32;;;2.30;;
19605;SDS011;9950;50.168;8.210;2022-11-23T14:02:38;5.97;;;1.67;;
19605;SDS011;9950;50.168;8.210;2022-11-23T14:07:56;6.75;;;1.58;;
19605;SDS011;9950;50.168;8.210;2022-11-23T14:10:27;6.60;;;1.67;;
19605;SDS011;9950;50.168;8.210;2022-11-23T14:12:57;7.53;;;1.80;;
19605;SDS011;9950;50.168;8.210;2022-11-23T14:15:26;5.70;;;1.83;;
19605;SDS011;9950;50.168;8.210;2022-11-23T14:18:03;8.27;;;1.52;;
19605;SDS011;9950;50.168;8.210;2022-11-23T14:23:35;8.02;;;1.98;;
19605;SDS011;9950;50.168;8.210;2022-11-23T14:26:13;6.78;;;1.90;;
19605;SDS011;9950;50.168;8.210;2022-11-23T14:28:46;5.45;;;1.55;;
19605;SDS011;9950;50.168;8.210;2022-11-23T14:31:19;6.03;;;1.92;;
19605;SDS011;9950;50.168;8.210;2022-11-23T14:33:50;6.03;;;1.30;;
19605;SDS011;9950;50.168;8.210;2022-11-23T14:36:25;6.90;;;1.85;;
19605;SDS011;9950;50.168;8.210;2022-11-23T14:41:42;4.72;;;1.55;;
19605;SDS011;9950;50.168;8.210;2022-11-23T14:44:11;8.82;;;1.75;;
19605;SDS011;9950;50.168;8.210;2022-11-23T14:49:23;9.77;;;1.98;;
19605;SDS011;9950;50.168;8.210;2022-11-23T14:51:52;6.95;;;1.42;;
19605;SDS011;9950;50.168;8.210;2022-11-23T14:54:21;7.47;;;1.50;;
19605;SDS011;9950;50.168;8.210;2022-11-23T14:56:51;4.63;;;1.40;;
19605;SDS011;9950;50.168;8.210;2022-11-23T14:59:22;9.40;;;1.83;;
19605;SDS011;9950;50.168;8.210;2022-11-23T15:01:53;5.72;;;2.00;;
19605;SDS011;9950;50.168;8.210;2022-11-23T15:04:24;5.82;;;1.75;;
19605;SDS011;9950;50.168;8.210;2022-11-23T15:06:54;6.75;;;1.92;;
19605;SDS011;9950;50.168;8.210;2022-11-23T15:09:27;7.40;;;1.77;;
19605;SDS011;9950;50.168;8.210;2022-11-23T15:12:16;7.03;;;1.83;;
19605;SDS011;9950;50.168;8.210;2022-11-23T15:14:45;5.13;;;1.60;;
19605;SDS011;9950;50.168;8.210;2022-11-23T15:17:15;6.03;;;2.05;;
19605;SDS011;9950;50.168;8.210;2022-11-23T15:19:51;7.57;;;2.00;;
19605;SDS011;9950;50.168;8.210;2022-11-23T15:22:19;6.43;;;1.60;;
19605;SDS011;9950;50.168;8.210;2022-11-23T15:24:48;6.18;;;1.67;;
19605;SDS011;9950;50.168;8.210;2022-11-23T15:27:18;9.35;;;2.17;;
19605;SDS011;9950;50.168;8.210;2022-11-23T15:29:50;8.60;;;1.95;;
19605;SDS011;9950;50.168;8.210;2022-11-23T15:32:20;8.68;;;1.80;;
19605;SDS011;9950;50.168;8.210;2022-11-23T15:34:48;7.00;;;1.60;;
19605;SDS011;9950;50.168;8.210;2022-11-23T15:37:16;6.68;;;1.65;;